sensor_id;sensor_type;location;lat;lon;timestamp;temperature;humidity
39951;DHT22;25629;51.444;-2.606;2023-05-23T00:00:23;14.90;1.00
39951;DHT22;25629;51.444;-2.606;2023-05-23T00:02:49;14.80;1.00
39951;DHT22;25629;51.444;-2.606;2023-05-23T00:05:14;14.80;1.00
39951;DHT22;25629;51.444;-2.606;2023-05-23T00:07:42;14.80;1.00
39951;DHT22;25629;51.444;-2.606;2023-05-23T00:10:08;14.80;1.00
39951;DHT22;25629;51.444;-2.606;2023-05-23T00:12:34;14.80;1.00
39951;DHT22;25629;51.444;-2.606;2023-05-23T00:15:02;14.80;1.00
39951;DHT22;25629;51.444;-2.606;2023-05-23T00:17:27;14.80;1.00
39951;DHT22;25629;51.444;-2.606;2023-05-23T00:19:53;14.80;1.00
39951;DHT22;25629;51.444;-2.606;2023-05-23T00:22:20;14.90;1.00
39951;DHT22;25629;51.444;-2.606;2023-05-23T00:24:46;14.90;1.00
39951;DHT22;25629;51.444;-2.606;2023-05-23T00:27:11;14.80;1.00
39951;DHT22;25629;51.444;-2.606;2023-05-23T00:29:37;14.70;1.00
39951;DHT22;25629;51.444;-2.606;2023-05-23T00:32:03;14.70;1.00
39951;DHT22;25629;51.444;-2.606;2023-05-23T00:34:28;14.60;1.00
39951;DHT22;25629;51.444;-2.606;2023-05-23T00:36:54;14.60;1.00
39951;DHT22;25629;51.444;-2.606;2023-05-23T00:39:19;14.60;1.00
39951;DHT22;25629;51.444;-2.606;2023-05-23T00:41:45;14.50;1.00
39951;DHT22;25629;51.444;-2.606;2023-05-23T00:44:11;14.40;1.00
39951;DHT22;25629;51.444;-2.606;2023-05-23T00:46:37;14.50;1.00
39951;DHT22;25629;51.444;-2.606;2023-05-23T00:49:03;14.40;1.00
39951;DHT22;25629;51.444;-2.606;2023-05-23T00:51:28;14.40;1.00
39951;DHT22;25629;51.444;-2.606;2023-05-23T00:53:54;14.40;1.00
39951;DHT22;25629;51.444;-2.606;2023-05-23T00:56:20;14.40;1.00
39951;DHT22;25629;51.444;-2.606;2023-05-23T00:58:45;14.30;6.80
39951;DHT22;25629;51.444;-2.606;2023-05-23T01:01:12;14.20;38.60
39951;DHT22;25629;51.444;-2.606;2023-05-23T01:03:38;14.20;78.80
39951;DHT22;25629;51.444;-2.606;2023-05-23T01:06:03;14.20;96.70
39951;DHT22;25629;51.444;-2.606;2023-05-23T01:08:29;14.10;99.90
39951;DHT22;25629;51.444;-2.606;2023-05-23T01:10:55;14.20;99.90
39951;DHT22;25629;51.444;-2.606;2023-05-23T01:13:25;14.20;99.90
39951;DHT22;25629;51.444;-2.606;2023-05-23T01:15:55;14.20;95.10
39951;DHT22;25629;51.444;-2.606;2023-05-23T01:18:23;14.20;99.90
39951;DHT22;25629;51.444;-2.606;2023-05-23T01:20:54;14.20;99.90
39951;DHT22;25629;51.444;-2.606;2023-05-23T01:23:24;14.10;99.90
39951;DHT22;25629;51.444;-2.606;2023-05-23T01:26:13;14.00;99.90
39951;DHT22;25629;51.444;-2.606;2023-05-23T01:28:44;14.00;99.90
39951;DHT22;25629;51.444;-2.606;2023-05-23T01:31:10;14.00;99.90
39951;DHT22;25629;51.444;-2.606;2023-05-23T01:33:36;14.00;99.90
39951;DHT22;25629;51.444;-2.606;2023-05-23T01:36:02;13.90;99.90
39951;DHT22;25629;51.444;-2.606;2023-05-23T01:38:28;13.90;99.90
39951;DHT22;25629;51.444;-2.606;2023-05-23T01:40:54;13.90;99.90
39951;DHT22;25629;51.444;-2.606;2023-05-23T01:43:19;13.90;1.00
39951;DHT22;25629;51.444;-2.606;2023-05-23T01:45:45;13.90;1.00
39951;DHT22;25629;51.444;-2.606;2023-05-23T01:48:12;13.80;1.00
39951;DHT22;25629;51.444;-2.606;2023-05-23T01:50:38;13.80;1.00
39951;DHT22;25629;51.444;-2.606;2023-05-23T01:53:04;13.70;14.70
39951;DHT22;25629;51.444;-2.606;2023-05-23T01:55:30;13.80;65.50
39951;DHT22;25629;51.444;-2.606;2023-05-23T01:57:56;13.60;99.90
39951;DHT22;25629;51.444;-2.606;2023-05-23T02:00:22;13.60;99.90
39951;DHT22;25629;51.444;-2.606;2023-05-23T02:02:47;13.60;99.90
39951;DHT22;25629;51.444;-2.606;2023-05-23T02:05:13;13.60;99.90
39951;DHT22;25629;51.444;-2.606;2023-05-23T02:07:38;13.60;99.90
39951;DHT22;25629;51.444;-2.606;2023-05-23T02:10:06;13.60;99.90
39951;DHT22;25629;51.444;-2.606;2023-05-23T02:12:32;13.60;99.90
39951;DHT22;25629;51.444;-2.606;2023-05-23T02:14:58;13.60;99.90
39951;DHT22;25629;51.444;-2.606;2023-05-23T02:17:23;13.60;99.90
39951;DHT22;25629;51.444;-2.606;2023-05-23T02:19:49;13.60;99.90
39951;DHT22;25629;51.444;-2.606;2023-05-23T02:22:15;13.50;99.90
39951;DHT22;25629;51.444;-2.606;2023-05-23T02:24:40;13.50;99.90
39951;DHT22;25629;51.444;-2.606;2023-05-23T02:27:06;13.50;99.90
39951;DHT22;25629;51.444;-2.606;2023-05-23T02:29:31;13.40;1.00
39951;DHT22;25629;51.444;-2.606;2023-05-23T02:31:57;13.40;1.00
39951;DHT22;25629;51.444;-2.606;2023-05-23T02:34:22;13.40;1.00
39951;DHT22;25629;51.444;-2.606;2023-05-23T02:36:48;13.40;1.00
39951;DHT22;25629;51.444;-2.606;2023-05-23T02:39:13;13.40;1.00
39951;DHT22;25629;51.444;-2.606;2023-05-23T02:41:39;13.50;99.90
39951;DHT22;25629;51.444;-2.606;2023-05-23T02:44:05;13.50;1.00
39951;DHT22;25629;51.444;-2.606;2023-05-23T02:46:30;13.40;89.60
39951;DHT22;25629;51.444;-2.606;2023-05-23T02:48:56;13.40;99.90
39951;DHT22;25629;51.444;-2.606;2023-05-23T02:51:21;13.40;99.90
39951;DHT22;25629;51.444;-2.606;2023-05-23T02:53:47;13.40;99.90
39951;DHT22;25629;51.444;-2.606;2023-05-23T02:56:12;13.30;99.90
39951;DHT22;25629;51.444;-2.606;2023-05-23T02:58:40;13.40;99.90
39951;DHT22;25629;51.444;-2.606;2023-05-23T03:01:07;13.30;99.90
39951;DHT22;25629;51.444;-2.606;2023-05-23T03:03:33;13.30;99.90
39951;DHT22;25629;51.444;-2.606;2023-05-23T03:06:00;13.30;1.00
39951;DHT22;25629;51.444;-2.606;2023-05-23T03:08:26;13.30;99.90
39951;DHT22;25629;51.444;-2.606;2023-05-23T03:10:51;13.30;1.00
39951;DHT22;25629;51.444;-2.606;2023-05-23T03:13:17;13.30;99.90
39951;DHT22;25629;51.444;-2.606;2023-05-23T03:15:43;13.40;99.90
39951;DHT22;25629;51.444;-2.606;2023-05-23T03:18:09;13.30;1.00
39951;DHT22;25629;51.444;-2.606;2023-05-23T03:20:35;13.30;1.00
39951;DHT22;25629;51.444;-2.606;2023-05-23T03:23:00;13.30;1.00
39951;DHT22;25629;51.444;-2.606;2023-05-23T03:25:26;13.30;99.90
39951;DHT22;25629;51.444;-2.606;2023-05-23T03:27:51;13.20;1.00
39951;DHT22;25629;51.444;-2.606;2023-05-23T03:30:17;13.20;1.00
39951;DHT22;25629;51.444;-2.606;2023-05-23T03:32:43;13.20;99.90
39951;DHT22;25629;51.444;-2.606;2023-05-23T03:35:08;13.20;99.90
39951;DHT22;25629;51.444;-2.606;2023-05-23T03:37:34;13.20;99.90
39951;DHT22;25629;51.444;-2.606;2023-05-23T03:39:59;13.20;99.90
39951;DHT22;25629;51.444;-2.606;2023-05-23T03:42:26;13.20;99.90
39951;DHT22;25629;51.444;-2.606;2023-05-23T03:44:52;13.10;1.00
39951;DHT22;25629;51.444;-2.606;2023-05-23T03:47:18;13.10;1.00
39951;DHT22;25629;51.444;-2.606;2023-05-23T03:49:43;13.10;99.90
39951;DHT22;25629;51.444;-2.606;2023-05-23T03:52:09;13.10;99.90
39951;DHT22;25629;51.444;-2.606;2023-05-23T03:54:35;13.00;99.90
39951;DHT22;25629;51.444;-2.606;2023-05-23T03:57:00;13.00;1.00
39951;DHT22;25629;51.444;-2.606;2023-05-23T03:59:27;13.00;1.00
39951;DHT22;25629;51.444;-2.606;2023-05-23T04:01:52;13.10;99.90
39951;DHT22;25629;51.444;-2.606;2023-05-23T04:04:18;13.00;1.00
39951;DHT22;25629;51.444;-2.606;2023-05-23T04:06:45;12.90;99.90
39951;DHT22;25629;51.444;-2.606;2023-05-23T04:09:11;12.90;99.90
39951;DHT22;25629;51.444;-2.606;2023-05-23T04:11:38;12.90;1.00
39951;DHT22;25629;51.444;-2.606;2023-05-23T04:14:03;12.90;99.90
39951;DHT22;25629;51.444;-2.606;2023-05-23T04:16:29;12.90;99.90
39951;DHT22;25629;51.444;-2.606;2023-05-23T04:18:58;12.90;1.00
39951;DHT22;25629;51.444;-2.606;2023-05-23T04:21:24;12.90;1.00
39951;DHT22;25629;51.444;-2.606;2023-05-23T04:23:49;12.90;99.90
39951;DHT22;25629;51.444;-2.606;2023-05-23T04:26:15;12.90;99.90
39951;DHT22;25629;51.444;-2.606;2023-05-23T04:28:40;12.90;99.90
39951;DHT22;25629;51.444;-2.606;2023-05-23T04:31:08;12.90;3.60
39951;DHT22;25629;51.444;-2.606;2023-05-23T04:33:34;12.90;99.90
39951;DHT22;25629;51.444;-2.606;2023-05-23T04:35:59;12.90;99.90
39951;DHT22;25629;51.444;-2.606;2023-05-23T04:38:25;13.00;1.00
39951;DHT22;25629;51.444;-2.606;2023-05-23T04:40:52;13.00;1.00
39951;DHT22;25629;51.444;-2.606;2023-05-23T04:43:18;13.00;99.90
39951;DHT22;25629;51.444;-2.606;2023-05-23T04:45:47;13.00;99.90
39951;DHT22;25629;51.444;-2.606;2023-05-23T04:48:14;12.90;1.00
39951;DHT22;25629;51.444;-2.606;2023-05-23T04:50:41;12.90;8.80
39951;DHT22;25629;51.444;-2.606;2023-05-23T04:53:07;12.80;99.90
39951;DHT22;25629;51.444;-2.606;2023-05-23T04:55:32;12.90;1.00
39951;DHT22;25629;51.444;-2.606;2023-05-23T04:57:59;12.90;1.00
39951;DHT22;25629;51.444;-2.606;2023-05-23T05:00:25;12.90;34.90
39951;DHT22;25629;51.444;-2.606;2023-05-23T05:02:51;13.00;99.90
39951;DHT22;25629;51.444;-2.606;2023-05-23T05:05:16;13.00;1.00
39951;DHT22;25629;51.444;-2.606;2023-05-23T05:07:42;13.00;99.90
39951;DHT22;25629;51.444;-2.606;2023-05-23T05:10:08;13.00;99.90
39951;DHT22;25629;51.444;-2.606;2023-05-23T05:12:44;13.00;1.00
39951;DHT22;25629;51.444;-2.606;2023-05-23T05:15:11;12.90;1.00
39951;DHT22;25629;51.444;-2.606;2023-05-23T05:17:37;12.80;1.00
39951;DHT22;25629;51.444;-2.606;2023-05-23T05:20:03;12.80;99.90
39951;DHT22;25629;51.444;-2.606;2023-05-23T05:22:38;12.80;99.90
39951;DHT22;25629;51.444;-2.606;2023-05-23T05:25:08;12.80;1.00
39951;DHT22;25629;51.444;-2.606;2023-05-23T05:27:33;12.80;59.70
39951;DHT22;25629;51.444;-2.606;2023-05-23T05:29:59;12.80;99.90
39951;DHT22;25629;51.444;-2.606;2023-05-23T05:32:29;12.90;1.00
39951;DHT22;25629;51.444;-2.606;2023-05-23T05:34:58;13.00;99.90
39951;DHT22;25629;51.444;-2.606;2023-05-23T05:37:24;13.10;99.90
39951;DHT22;25629;51.444;-2.606;2023-05-23T05:39:49;13.20;99.90
39951;DHT22;25629;51.444;-2.606;2023-05-23T05:42:15;13.30;1.00
39951;DHT22;25629;51.444;-2.606;2023-05-23T05:44:41;13.30;1.00
39951;DHT22;25629;51.444;-2.606;2023-05-23T05:47:06;13.40;99.90
39951;DHT22;25629;51.444;-2.606;2023-05-23T05:49:32;13.50;35.40
39951;DHT22;25629;51.444;-2.606;2023-05-23T05:51:57;13.70;63.10
39951;DHT22;25629;51.444;-2.606;2023-05-23T05:54:23;13.70;1.00
39951;DHT22;25629;51.444;-2.606;2023-05-23T05:56:48;13.80;1.00
39951;DHT22;25629;51.444;-2.606;2023-05-23T05:59:14;13.80;99.90
39951;DHT22;25629;51.444;-2.606;2023-05-23T06:01:40;13.90;4.60
39951;DHT22;25629;51.444;-2.606;2023-05-23T06:04:05;13.90;1.00
39951;DHT22;25629;51.444;-2.606;2023-05-23T06:06:31;14.00;99.90
39951;DHT22;25629;51.444;-2.606;2023-05-23T06:08:56;14.10;99.90
39951;DHT22;25629;51.444;-2.606;2023-05-23T06:11:22;14.10;99.90
39951;DHT22;25629;51.444;-2.606;2023-05-23T06:13:47;14.10;99.90
39951;DHT22;25629;51.444;-2.606;2023-05-23T06:16:13;14.10;99.90
39951;DHT22;25629;51.444;-2.606;2023-05-23T06:18:39;14.20;1.00
39951;DHT22;25629;51.444;-2.606;2023-05-23T06:21:05;14.30;99.90
39951;DHT22;25629;51.444;-2.606;2023-05-23T06:23:31;14.40;99.90
39951;DHT22;25629;51.444;-2.606;2023-05-23T06:25:57;14.50;28.30
39951;DHT22;25629;51.444;-2.606;2023-05-23T06:28:23;14.50;1.00
39951;DHT22;25629;51.444;-2.606;2023-05-23T06:30:48;14.60;1.00
39951;DHT22;25629;51.444;-2.606;2023-05-23T06:33:14;14.70;1.00
39951;DHT22;25629;51.444;-2.606;2023-05-23T06:35:40;14.80;99.90
39951;DHT22;25629;51.444;-2.606;2023-05-23T06:38:06;14.80;99.90
39951;DHT22;25629;51.444;-2.606;2023-05-23T06:40:31;14.90;81.10
39951;DHT22;25629;51.444;-2.606;2023-05-23T06:42:57;14.90;1.00
39951;DHT22;25629;51.444;-2.606;2023-05-23T06:45:22;15.10;1.00
39951;DHT22;25629;51.444;-2.606;2023-05-23T06:47:48;15.00;1.00
39951;DHT22;25629;51.444;-2.606;2023-05-23T06:50:13;14.90;1.00
39951;DHT22;25629;51.444;-2.606;2023-05-23T06:52:39;15.00;1.00
39951;DHT22;25629;51.444;-2.606;2023-05-23T06:55:07;15.00;1.00
39951;DHT22;25629;51.444;-2.606;2023-05-23T06:57:32;15.00;1.00
39951;DHT22;25629;51.444;-2.606;2023-05-23T06:59:58;15.20;99.90
39951;DHT22;25629;51.444;-2.606;2023-05-23T07:02:23;15.40;99.90
39951;DHT22;25629;51.444;-2.606;2023-05-23T07:04:49;15.60;99.90
39951;DHT22;25629;51.444;-2.606;2023-05-23T07:07:15;15.70;99.90
39951;DHT22;25629;51.444;-2.606;2023-05-23T07:09:40;15.70;99.90
39951;DHT22;25629;51.444;-2.606;2023-05-23T07:12:06;15.80;99.90
39951;DHT22;25629;51.444;-2.606;2023-05-23T07:14:31;15.70;99.90
39951;DHT22;25629;51.444;-2.606;2023-05-23T07:16:59;15.90;99.90
39951;DHT22;25629;51.444;-2.606;2023-05-23T07:19:25;16.10;64.20
39951;DHT22;25629;51.444;-2.606;2023-05-23T07:21:51;16.20;22.20
39951;DHT22;25629;51.444;-2.606;2023-05-23T07:24:16;16.20;10.20
39951;DHT22;25629;51.444;-2.606;2023-05-23T07:26:42;16.40;12.00
39951;DHT22;25629;51.444;-2.606;2023-05-23T07:29:07;16.40;1.00
39951;DHT22;25629;51.444;-2.606;2023-05-23T07:31:33;16.60;1.00
39951;DHT22;25629;51.444;-2.606;2023-05-23T07:33:58;16.60;1.00
39951;DHT22;25629;51.444;-2.606;2023-05-23T07:36:24;16.50;1.00
39951;DHT22;25629;51.444;-2.606;2023-05-23T07:38:49;16.70;1.00
39951;DHT22;25629;51.444;-2.606;2023-05-23T07:41:15;16.70;1.00
39951;DHT22;25629;51.444;-2.606;2023-05-23T07:43:41;16.80;1.00
39951;DHT22;25629;51.444;-2.606;2023-05-23T07:46:06;16.80;1.00
39951;DHT22;25629;51.444;-2.606;2023-05-23T07:48:32;16.70;1.00
39951;DHT22;25629;51.444;-2.606;2023-05-23T07:50:57;16.90;1.00
39951;DHT22;25629;51.444;-2.606;2023-05-23T07:53:23;17.10;1.00
39951;DHT22;25629;51.444;-2.606;2023-05-23T07:55:49;17.00;1.00
39951;DHT22;25629;51.444;-2.606;2023-05-23T07:58:14;17.00;1.00
39951;DHT22;25629;51.444;-2.606;2023-05-23T08:00:40;17.00;1.00
39951;DHT22;25629;51.444;-2.606;2023-05-23T08:03:06;16.80;1.00
39951;DHT22;25629;51.444;-2.606;2023-05-23T08:05:31;16.90;1.00
39951;DHT22;25629;51.444;-2.606;2023-05-23T08:07:57;17.10;1.00
39951;DHT22;25629;51.444;-2.606;2023-05-23T08:10:23;17.10;1.00
39951;DHT22;25629;51.444;-2.606;2023-05-23T08:12:48;17.20;1.00
39951;DHT22;25629;51.444;-2.606;2023-05-23T08:15:14;17.30;1.00
39951;DHT22;25629;51.444;-2.606;2023-05-23T08:17:39;17.20;1.00
39951;DHT22;25629;51.444;-2.606;2023-05-23T08:20:05;17.00;1.00
39951;DHT22;25629;51.444;-2.606;2023-05-23T08:22:31;17.00;1.00
39951;DHT22;25629;51.444;-2.606;2023-05-23T08:24:57;17.10;1.00
39951;DHT22;25629;51.444;-2.606;2023-05-23T08:27:22;17.10;1.00
39951;DHT22;25629;51.444;-2.606;2023-05-23T08:29:48;17.00;1.00
39951;DHT22;25629;51.444;-2.606;2023-05-23T08:32:13;16.90;1.00
39951;DHT22;25629;51.444;-2.606;2023-05-23T08:34:39;16.80;1.00
39951;DHT22;25629;51.444;-2.606;2023-05-23T08:37:05;16.90;1.00
39951;DHT22;25629;51.444;-2.606;2023-05-23T08:39:31;16.90;1.00
39951;DHT22;25629;51.444;-2.606;2023-05-23T08:41:56;17.00;1.00
39951;DHT22;25629;51.444;-2.606;2023-05-23T08:44:22;17.00;1.00
39951;DHT22;25629;51.444;-2.606;2023-05-23T08:46:47;16.80;1.00
39951;DHT22;25629;51.444;-2.606;2023-05-23T08:49:16;16.80;1.00
39951;DHT22;25629;51.444;-2.606;2023-05-23T08:51:42;16.90;1.00
39951;DHT22;25629;51.444;-2.606;2023-05-23T08:54:08;17.20;1.00
39951;DHT22;25629;51.444;-2.606;2023-05-23T08:56:37;17.40;1.00
39951;DHT22;25629;51.444;-2.606;2023-05-23T08:59:03;17.70;1.00
39951;DHT22;25629;51.444;-2.606;2023-05-23T09:01:29;18.10;1.00
39951;DHT22;25629;51.444;-2.606;2023-05-23T09:03:55;18.40;1.00
39951;DHT22;25629;51.444;-2.606;2023-05-23T09:06:20;18.40;1.00
39951;DHT22;25629;51.444;-2.606;2023-05-23T09:08:46;18.50;1.00
39951;DHT22;25629;51.444;-2.606;2023-05-23T09:11:12;18.60;1.00
39951;DHT22;25629;51.444;-2.606;2023-05-23T09:13:38;18.60;1.00
39951;DHT22;25629;51.444;-2.606;2023-05-23T09:16:10;18.70;99.90
39951;DHT22;25629;51.444;-2.606;2023-05-23T09:18:37;19.00;99.90
39951;DHT22;25629;51.444;-2.606;2023-05-23T09:21:03;19.10;99.90
39951;DHT22;25629;51.444;-2.606;2023-05-23T09:23:33;19.20;99.90
39951;DHT22;25629;51.444;-2.606;2023-05-23T09:26:08;19.40;99.90
39951;DHT22;25629;51.444;-2.606;2023-05-23T09:28:35;19.50;99.90
39951;DHT22;25629;51.444;-2.606;2023-05-23T09:31:02;19.80;99.90
39951;DHT22;25629;51.444;-2.606;2023-05-23T09:33:49;20.10;99.90
39951;DHT22;25629;51.444;-2.606;2023-05-23T09:36:13;20.10;99.90
39951;DHT22;25629;51.444;-2.606;2023-05-23T09:38:40;20.20;99.90
39951;DHT22;25629;51.444;-2.606;2023-05-23T09:41:05;20.10;99.90
39951;DHT22;25629;51.444;-2.606;2023-05-23T09:43:31;20.30;99.90
39951;DHT22;25629;51.444;-2.606;2023-05-23T09:46:02;20.80;99.90
39951;DHT22;25629;51.444;-2.606;2023-05-23T09:48:31;21.10;99.90
39951;DHT22;25629;51.444;-2.606;2023-05-23T09:50:57;21.00;99.90
39951;DHT22;25629;51.444;-2.606;2023-05-23T09:53:23;20.60;99.90
39951;DHT22;25629;51.444;-2.606;2023-05-23T09:55:52;20.10;99.90
39951;DHT22;25629;51.444;-2.606;2023-05-23T09:58:18;20.20;99.90
39951;DHT22;25629;51.444;-2.606;2023-05-23T10:00:45;20.40;99.90
39951;DHT22;25629;51.444;-2.606;2023-05-23T10:03:11;20.40;99.90
39951;DHT22;25629;51.444;-2.606;2023-05-23T10:05:45;20.70;99.90
39951;DHT22;25629;51.444;-2.606;2023-05-23T10:08:24;21.00;99.90
39951;DHT22;25629;51.444;-2.606;2023-05-23T10:13:19;22.30;99.90
39951;DHT22;25629;51.444;-2.606;2023-05-23T10:15:45;22.70;99.90
39951;DHT22;25629;51.444;-2.606;2023-05-23T10:18:15;22.70;99.90
39951;DHT22;25629;51.444;-2.606;2023-05-23T10:20:42;22.50;99.90
39951;DHT22;25629;51.444;-2.606;2023-05-23T10:23:10;22.20;99.90
39951;DHT22;25629;51.444;-2.606;2023-05-23T10:25:36;21.60;99.90
39951;DHT22;25629;51.444;-2.606;2023-05-23T10:28:02;21.30;99.90
39951;DHT22;25629;51.444;-2.606;2023-05-23T10:30:27;21.40;99.90
39951;DHT22;25629;51.444;-2.606;2023-05-23T10:32:53;21.80;99.90
39951;DHT22;25629;51.444;-2.606;2023-05-23T10:35:22;21.90;99.90
39951;DHT22;25629;51.444;-2.606;2023-05-23T10:40:36;21.90;99.90
39951;DHT22;25629;51.444;-2.606;2023-05-23T10:45:39;21.50;99.90
39951;DHT22;25629;51.444;-2.606;2023-05-23T10:51:02;21.30;99.90
39951;DHT22;25629;51.444;-2.606;2023-05-23T10:53:29;20.90;99.90
39951;DHT22;25629;51.444;-2.606;2023-05-23T10:55:55;20.90;99.90
39951;DHT22;25629;51.444;-2.606;2023-05-23T10:58:21;20.80;99.90
39951;DHT22;25629;51.444;-2.606;2023-05-23T11:00:53;20.70;99.90
39951;DHT22;25629;51.444;-2.606;2023-05-23T11:03:35;20.60;99.90
39951;DHT22;25629;51.444;-2.606;2023-05-23T11:06:02;20.20;99.90
39951;DHT22;25629;51.444;-2.606;2023-05-23T11:08:38;20.30;99.90
39951;DHT22;25629;51.444;-2.606;2023-05-23T11:11:06;20.10;99.90
39951;DHT22;25629;51.444;-2.606;2023-05-23T11:18:50;20.10;99.90
39951;DHT22;25629;51.444;-2.606;2023-05-23T11:21:16;20.10;99.90
39951;DHT22;25629;51.444;-2.606;2023-05-23T11:23:42;20.20;99.90
39951;DHT22;25629;51.444;-2.606;2023-05-23T11:28:55;20.50;99.90
39951;DHT22;25629;51.444;-2.606;2023-05-23T11:31:20;20.80;99.90
39951;DHT22;25629;51.444;-2.606;2023-05-23T11:33:49;21.10;99.90
39951;DHT22;25629;51.444;-2.606;2023-05-23T11:36:14;21.40;99.90
39951;DHT22;25629;51.444;-2.606;2023-05-23T11:38:40;21.40;99.90
39951;DHT22;25629;51.444;-2.606;2023-05-23T11:41:05;21.40;99.90
39951;DHT22;25629;51.444;-2.606;2023-05-23T11:43:31;21.50;99.90
39951;DHT22;25629;51.444;-2.606;2023-05-23T11:45:57;21.40;99.90
39951;DHT22;25629;51.444;-2.606;2023-05-23T11:48:22;21.40;99.90
39951;DHT22;25629;51.444;-2.606;2023-05-23T11:50:48;21.20;99.90
39951;DHT22;25629;51.444;-2.606;2023-05-23T11:53:15;21.30;99.90
39951;DHT22;25629;51.444;-2.606;2023-05-23T11:55:48;21.40;99.90
39951;DHT22;25629;51.444;-2.606;2023-05-23T11:58:14;21.40;99.90
39951;DHT22;25629;51.444;-2.606;2023-05-23T12:00:44;21.40;99.90
39951;DHT22;25629;51.444;-2.606;2023-05-23T12:03:09;21.40;99.90
39951;DHT22;25629;51.444;-2.606;2023-05-23T12:05:36;21.70;99.90
39951;DHT22;25629;51.444;-2.606;2023-05-23T12:08:01;22.00;99.90
39951;DHT22;25629;51.444;-2.606;2023-05-23T12:10:27;22.50;99.90
39951;DHT22;25629;51.444;-2.606;2023-05-23T12:12:53;22.60;99.90
39951;DHT22;25629;51.444;-2.606;2023-05-23T12:15:23;22.50;99.90
39951;DHT22;25629;51.444;-2.606;2023-05-23T12:17:49;22.60;99.90
39951;DHT22;25629;51.444;-2.606;2023-05-23T12:20:18;22.30;99.90
39951;DHT22;25629;51.444;-2.606;2023-05-23T12:22:44;22.20;99.90
39951;DHT22;25629;51.444;-2.606;2023-05-23T12:25:10;22.60;99.90
39951;DHT22;25629;51.444;-2.606;2023-05-23T12:27:36;23.10;99.90
39951;DHT22;25629;51.444;-2.606;2023-05-23T12:32:31;23.60;99.90
39951;DHT22;25629;51.444;-2.606;2023-05-23T12:34:57;23.70;99.90
39951;DHT22;25629;51.444;-2.606;2023-05-23T12:37:23;23.40;99.90
39951;DHT22;25629;51.444;-2.606;2023-05-23T12:39:48;23.30;99.90
39951;DHT22;25629;51.444;-2.606;2023-05-23T12:42:14;23.50;99.90
39951;DHT22;25629;51.444;-2.606;2023-05-23T12:44:40;23.40;99.90
39951;DHT22;25629;51.444;-2.606;2023-05-23T12:47:07;23.70;99.90
39951;DHT22;25629;51.444;-2.606;2023-05-23T12:49:33;23.90;99.90
39951;DHT22;25629;51.444;-2.606;2023-05-23T12:51:59;24.10;99.90
39951;DHT22;25629;51.444;-2.606;2023-05-23T12:54:24;24.30;99.90
39951;DHT22;25629;51.444;-2.606;2023-05-23T12:56:50;24.60;99.90
39951;DHT22;25629;51.444;-2.606;2023-05-23T12:59:16;24.90;99.90
39951;DHT22;25629;51.444;-2.606;2023-05-23T13:01:41;24.70;99.90
39951;DHT22;25629;51.444;-2.606;2023-05-23T13:04:07;24.70;99.90
39951;DHT22;25629;51.444;-2.606;2023-05-23T13:06:32;25.00;99.90
39951;DHT22;25629;51.444;-2.606;2023-05-23T13:08:58;25.30;99.90
39951;DHT22;25629;51.444;-2.606;2023-05-23T13:11:24;25.10;99.90
39951;DHT22;25629;51.444;-2.606;2023-05-23T13:13:49;25.20;99.90
39951;DHT22;25629;51.444;-2.606;2023-05-23T13:16:16;26.10;99.90
39951;DHT22;25629;51.444;-2.606;2023-05-23T13:18:41;26.70;99.90
39951;DHT22;25629;51.444;-2.606;2023-05-23T13:21:07;26.70;99.90
39951;DHT22;25629;51.444;-2.606;2023-05-23T13:23:33;26.50;99.90
39951;DHT22;25629;51.444;-2.606;2023-05-23T13:26:00;26.00;99.90
39951;DHT22;25629;51.444;-2.606;2023-05-23T13:28:26;25.30;99.90
39951;DHT22;25629;51.444;-2.606;2023-05-23T13:30:51;24.30;99.90
39951;DHT22;25629;51.444;-2.606;2023-05-23T13:33:17;23.90;99.90
39951;DHT22;25629;51.444;-2.606;2023-05-23T13:35:42;23.50;99.90
39951;DHT22;25629;51.444;-2.606;2023-05-23T13:38:08;23.30;99.90
39951;DHT22;25629;51.444;-2.606;2023-05-23T13:40:34;23.20;99.90
39951;DHT22;25629;51.444;-2.606;2023-05-23T13:42:59;23.60;99.90
39951;DHT22;25629;51.444;-2.606;2023-05-23T13:45:25;24.00;99.90
39951;DHT22;25629;51.444;-2.606;2023-05-23T13:47:51;24.10;99.90
39951;DHT22;25629;51.444;-2.606;2023-05-23T13:50:16;24.20;99.90
39951;DHT22;25629;51.444;-2.606;2023-05-23T13:52:42;24.70;99.90
39951;DHT22;25629;51.444;-2.606;2023-05-23T13:55:08;25.10;99.90
39951;DHT22;25629;51.444;-2.606;2023-05-23T13:57:33;25.20;99.90
39951;DHT22;25629;51.444;-2.606;2023-05-23T13:59:59;24.90;99.90
39951;DHT22;25629;51.444;-2.606;2023-05-23T14:02:24;24.70;99.90
39951;DHT22;25629;51.444;-2.606;2023-05-23T14:04:51;24.10;99.90
39951;DHT22;25629;51.444;-2.606;2023-05-23T14:07:17;23.80;99.90
39951;DHT22;25629;51.444;-2.606;2023-05-23T14:09:43;23.20;99.90
39951;DHT22;25629;51.444;-2.606;2023-05-23T14:12:08;23.60;99.90
39951;DHT22;25629;51.444;-2.606;2023-05-23T14:14:34;24.10;99.90
39951;DHT22;25629;51.444;-2.606;2023-05-23T14:17:00;24.30;99.90
39951;DHT22;25629;51.444;-2.606;2023-05-23T14:19:25;25.00;99.90
39951;DHT22;25629;51.444;-2.606;2023-05-23T14:21:51;25.40;99.90
39951;DHT22;25629;51.444;-2.606;2023-05-23T14:24:16;26.20;99.90
39951;DHT22;25629;51.444;-2.606;2023-05-23T14:26:42;27.20;99.90
39951;DHT22;25629;51.444;-2.606;2023-05-23T14:29:07;28.50;99.90
39951;DHT22;25629;51.444;-2.606;2023-05-23T14:31:33;29.00;99.90
39951;DHT22;25629;51.444;-2.606;2023-05-23T14:33:59;29.20;99.90
39951;DHT22;25629;51.444;-2.606;2023-05-23T14:36:26;28.70;99.90
39951;DHT22;25629;51.444;-2.606;2023-05-23T14:38:51;27.80;99.90
39951;DHT22;25629;51.444;-2.606;2023-05-23T14:41:17;26.50;99.90
39951;DHT22;25629;51.444;-2.606;2023-05-23T14:43:43;25.70;99.90
39951;DHT22;25629;51.444;-2.606;2023-05-23T14:46:08;25.30;99.90
39951;DHT22;25629;51.444;-2.606;2023-05-23T14:48:34;25.70;99.90
39951;DHT22;25629;51.444;-2.606;2023-05-23T14:51:00;25.70;99.90
39951;DHT22;25629;51.444;-2.606;2023-05-23T14:53:26;25.70;99.90
39951;DHT22;25629;51.444;-2.606;2023-05-23T14:55:52;25.30;99.90
39951;DHT22;25629;51.444;-2.606;2023-05-23T14:58:17;24.50;99.90
39951;DHT22;25629;51.444;-2.606;2023-05-23T15:00:43;24.00;99.90
39951;DHT22;25629;51.444;-2.606;2023-05-23T15:03:11;23.90;99.90
39951;DHT22;25629;51.444;-2.606;2023-05-23T15:05:37;23.80;99.90
39951;DHT22;25629;51.444;-2.606;2023-05-23T15:08:02;24.10;99.90
39951;DHT22;25629;51.444;-2.606;2023-05-23T15:10:28;24.30;99.90
39951;DHT22;25629;51.444;-2.606;2023-05-23T15:12:53;25.00;99.90
39951;DHT22;25629;51.444;-2.606;2023-05-23T15:15:19;26.10;99.90
39951;DHT22;25629;51.444;-2.606;2023-05-23T15:17:48;26.70;99.90
39951;DHT22;25629;51.444;-2.606;2023-05-23T15:20:15;26.20;99.90
39951;DHT22;25629;51.444;-2.606;2023-05-23T15:22:40;26.00;99.90
39951;DHT22;25629;51.444;-2.606;2023-05-23T15:25:06;25.50;99.90
39951;DHT22;25629;51.444;-2.606;2023-05-23T15:27:32;25.20;99.90
39951;DHT22;25629;51.444;-2.606;2023-05-23T15:29:58;24.40;99.90
39951;DHT22;25629;51.444;-2.606;2023-05-23T15:32:23;24.00;99.90
39951;DHT22;25629;51.444;-2.606;2023-05-23T15:34:49;23.80;99.90